createdAt,value
2023-03-23T16:00:24.341Z,18.19
2023-03-23T16:03:15.208Z,18.05
2023-03-23T16:06:03.438Z,18.06
2023-03-23T16:08:54.403Z,18.04
2023-03-23T16:11:43.578Z,18.00
2023-03-23T16:14:30.349Z,17.78
2023-03-23T16:17:21.815Z,17.84
2023-03-23T16:20:14.661Z,17.95
2023-03-23T16:23:01.581Z,17.80
2023-03-23T16:25:48.127Z,17.65
2023-03-23T16:28:36.248Z,17.46
2023-03-23T16:31:23.104Z,16.77
2023-03-23T16:34:10.243Z,16.29
2023-03-23T16:36:57.352Z,16.08
2023-03-23T16:39:43.992Z,15.80
2023-03-23T16:42:30.950Z,15.86
2023-03-23T16:45:19.512Z,15.75
2023-03-23T16:48:06.475Z,15.81
2023-03-23T16:50:54.639Z,15.71
2023-03-23T16:53:41.219Z,15.81
2023-03-23T16:56:27.977Z,15.65
2023-03-23T16:59:14.871Z,15.52
2023-03-23T17:02:04.306Z,15.46
2023-03-23T17:04:51.235Z,15.50
2023-03-23T17:07:38.497Z,15.52
2023-03-23T17:10:27.413Z,15.57
2023-03-23T17:13:14.590Z,15.66
2023-03-23T17:16:01.164Z,15.69
2023-03-23T17:18:49.436Z,15.50
2023-03-23T17:21:36.396Z,15.56
2023-03-23T17:24:22.983Z,15.34
2023-03-23T17:27:09.831Z,15.36
2023-03-23T17:29:56.654Z,15.51
2023-03-23T17:32:43.475Z,15.32
2023-03-23T17:35:31.911Z,15.33
2023-03-23T17:38:19.212Z,15.50
2023-03-23T17:41:08.154Z,15.51
2023-03-23T17:43:55.405Z,15.33
2023-03-23T17:46:42.203Z,15.34
2023-03-23T17:49:30.414Z,15.26
2023-03-23T17:52:18.501Z,15.25
2023-03-23T17:55:06.208Z,15.13
2023-03-23T17:57:52.982Z,15.21
2023-03-23T18:00:39.974Z,15.16
2023-03-23T18:03:27.005Z,15.13
2023-03-23T18:06:13.950Z,15.07
2023-03-23T18:09:03.612Z,15.09
2023-03-23T18:11:50.129Z,15.11
2023-03-23T18:14:39.099Z,15.04
2023-03-23T18:17:25.847Z,14.94
2023-03-23T18:20:12.607Z,14.93
2023-03-23T18:22:59.621Z,15.00
2023-03-23T18:25:47.541Z,15.05
2023-03-23T18:28:35.084Z,15.05
2023-03-23T18:31:22.119Z,15.13
2023-03-23T18:34:09.050Z,14.98
2023-03-23T18:36:55.873Z,15.06
2023-03-23T18:39:42.525Z,15.17
2023-03-23T18:42:30.693Z,15.06
2023-03-23T18:45:17.665Z,15.17
2023-03-23T18:48:07.226Z,15.02
2023-03-23T18:50:56.673Z,15.07
2023-03-23T18:53:44.331Z,15.05
2023-03-23T18:56:31.306Z,15.01
2023-03-23T18:59:19.381Z,14.86
2023-03-23T19:02:06.860Z,14.94
2023-03-23T19:04:53.531Z,14.86
2023-03-23T19:07:40.163Z,14.83
2023-03-23T19:10:27.912Z,14.66
2023-03-23T19:13:15.337Z,14.80
2023-03-23T19:16:03.590Z,14.80
2023-03-23T19:18:50.849Z,14.79
2023-03-23T19:21:46.984Z,14.77
2023-03-23T19:24:39.778Z,14.76
2023-03-23T19:27:26.456Z,14.66
2023-03-23T19:30:13.587Z,14.80
2023-03-23T19:33:02.311Z,14.83
2023-03-23T19:36:06.139Z,14.83
2023-03-23T19:38:57.896Z,14.78
2023-03-23T19:41:51.256Z,14.68
2023-03-23T19:44:38.752Z,14.67
2023-03-23T19:47:27.697Z,14.70
2023-03-23T19:50:18.417Z,14.77
2023-03-23T19:53:06.296Z,14.83
2023-03-23T19:55:52.995Z,14.84
2023-03-23T19:58:43.830Z,14.71
2023-03-23T20:01:31.299Z,14.67
2023-03-23T20:04:18.847Z,14.71
2023-03-23T20:07:08.499Z,14.71
2023-03-23T20:09:59.996Z,14.73
2023-03-23T20:12:49.552Z,14.75
2023-03-23T20:15:39.725Z,14.79
2023-03-23T20:21:17.370Z,14.80
2023-03-23T20:24:07.986Z,14.93
2023-03-23T20:26:55.550Z,15.01
2023-03-23T20:29:43.450Z,15.07
2023-03-23T20:32:32.743Z,15.01
2023-03-23T20:35:22.849Z,15.15
2023-03-23T20:38:11.086Z,15.07
2023-03-23T20:40:59.795Z,14.87
2023-03-23T20:43:47.635Z,15.00
2023-03-23T20:46:35.146Z,14.89
2023-03-23T20:49:28.073Z,14.94
2023-03-23T20:52:14.950Z,15.15
2023-03-23T20:55:02.548Z,15.05
2023-03-23T20:57:50.590Z,15.20
2023-03-23T21:00:37.373Z,15.00
2023-03-23T21:03:24.906Z,14.94
2023-03-23T21:06:12.465Z,14.89
2023-03-23T21:08:59.643Z,14.71
2023-03-23T21:11:46.881Z,14.59
2023-03-23T21:14:34.904Z,14.60
2023-03-23T21:17:21.434Z,14.69
2023-03-23T21:20:11.105Z,14.61
2023-03-23T21:22:57.953Z,14.62
2023-03-23T21:25:45.221Z,14.47
2023-03-23T21:28:32.258Z,14.37
2023-03-23T21:31:23.718Z,14.38
2023-03-23T21:34:11.105Z,14.52
2023-03-23T21:37:00.580Z,14.46
2023-03-23T21:39:47.987Z,14.41
2023-03-23T21:42:34.826Z,14.39
2023-03-23T21:45:22.015Z,14.65
2023-03-23T21:48:10.271Z,14.29
2023-03-23T21:50:57.201Z,14.31
2023-03-23T21:53:43.961Z,14.22
2023-03-23T21:56:31.355Z,14.15
2023-03-23T21:59:17.909Z,13.95
2023-03-23T22:02:04.759Z,13.83
2023-03-23T22:04:56.674Z,13.86
2023-03-23T22:07:46.695Z,13.52
2023-03-23T22:10:35.391Z,13.41
2023-03-23T22:13:22.676Z,13.37
2023-03-23T22:16:11.777Z,13.30
2023-03-23T22:19:00.412Z,13.26
2023-03-23T22:21:48.401Z,13.33
2023-03-23T22:24:35.389Z,13.11
2023-03-23T22:27:22.184Z,13.03
2023-03-23T22:30:11.906Z,13.10
2023-03-23T22:32:58.984Z,13.27
2023-03-23T22:35:47.859Z,13.25
2023-03-23T22:38:37.743Z,13.16
2023-03-23T22:41:26.395Z,13.43
2023-03-23T22:44:16.199Z,13.44
2023-03-23T22:47:02.692Z,13.64
2023-03-23T22:49:49.399Z,13.76
2023-03-23T22:52:37.480Z,13.66
2023-03-23T22:55:25.373Z,13.72
2023-03-23T22:58:12.732Z,13.75
2023-03-23T23:01:00.951Z,13.71
2023-03-23T23:03:48.756Z,13.70
2023-03-23T23:06:35.726Z,13.80
2023-03-23T23:09:22.855Z,13.78
2023-03-23T23:12:10.960Z,13.68
2023-03-23T23:14:58.673Z,13.79
2023-03-23T23:17:45.537Z,13.70
2023-03-23T23:20:33.352Z,13.70
2023-03-23T23:23:20.454Z,13.65
2023-03-23T23:26:07.755Z,13.50
2023-03-23T23:28:55.500Z,13.57
2023-03-23T23:31:42.204Z,13.42
2023-03-23T23:34:29.773Z,13.36
2023-03-23T23:37:16.618Z,13.31
2023-03-23T23:40:03.578Z,13.30
2023-03-23T23:42:52.686Z,13.34
2023-03-23T23:45:41.512Z,13.13
2023-03-23T23:48:28.363Z,13.20
2023-03-23T23:51:16.644Z,13.16
2023-03-23T23:54:04.701Z,13.26
2023-03-23T23:56:51.657Z,13.36
2023-03-23T23:59:38.176Z,13.15
